Domestic, Indiana
Current Conditions -  °F | °C
As of 3:35 PM on Tuesday 21 Oct 2014 (Local Time) from KHHG Reporting Station
Overcast Overcast  
Wind Chill: 52°   Ceiling: 4700
Heat Index: 52°   Visibility: 10mi
Dew Point: 43°   Wind: 7mph
Humidity: 70%   Direction: 360°N
Pressure: 30.09"   Gusts: NA
Location:  40.7175°N, 85.1549°W
Report Text: KHHG 211935Z AUTO 36006KT 10SM SCT036 OVC047 11/06 A3009 RMK AO2 T01130061
Loading
Personal Weather Stations






























Interactive Weather Map
Tropical Storm Tracking
New forecast layout! Learn more

10-Day Weather Forecast

Advertisements
Track Severe Weather on mobile